Time;durP1;ratioP1;P1;durP2;ratioP2;P2;SDS_P1;SDS_P2;PMS_P1;PMS_P2;Temp;Humidity;BMP_temperature;BMP_pressure;BME280_temperature;BME280_humidity;BME280_pressure;Samples;Min_cycle;Max_cycle;Signal;HPM_P1;HPM_P2
2024/01/29 00:00:26;;;;;;;7.15;3.90;;;;;;;;;;5032578;28;20060;-67
2024/01/29 00:02:52;;;;;;;6.68;3.20;;;;;;;;;;5032504;28;20049;-66
2024/01/29 00:05:18;;;;;;;6.93;3.75;;;11.70;87.20;;;;;;5032505;28;20047;-67
2024/01/29 00:07:44;;;;;;;7.20;3.10;;;;;;;;;;5032403;28;20060;-66
2024/01/29 00:10:11;;;;;;;5.45;2.80;;;;;;;;;;5033620;28;20137;-66
2024/01/29 00:12:37;;;;;;;6.35;3.10;;;;;;;;;;5033880;28;20088;-66
2024/01/29 00:15:03;;;;;;;6.72;4.00;;;11.60;88.70;;;;;;5032277;28;20050;-66
2024/01/29 00:17:29;;;;;;;7.22;3.42;;;;;;;;;;5032287;28;20049;-66
2024/01/29 00:19:55;;;;;;;6.35;3.40;;;11.60;88.60;;;;;;5016091;28;20120;-67
2024/01/29 00:22:21;;;;;;;6.10;3.33;;;;;;;;;;5031634;28;20578;-67
2024/01/29 00:24:47;;;;;;;5.72;3.10;;;;;;;;;;5033662;28;20384;-67
2024/01/29 00:27:13;;;;;;;5.60;3.10;;;;;;;;;;5032013;28;20054;-66
2024/01/29 00:29:39;;;;;;;7.22;4.28;;;;;;;;;;5033298;28;20054;-66
2024/01/29 00:32:06;;;;;;;6.07;3.03;;;11.40;86.80;;;;;;5031978;28;20057;-67
2024/01/29 00:34:32;;;;;;;6.25;4.05;;;;;;;;;;5031979;28;20045;-66
2024/01/29 00:36:58;;;;;;;7.30;3.60;;;;;;;;;;5031960;28;20052;-66
2024/01/29 00:39:24;;;;;;;6.38;3.88;;;;;;;;;;5031743;28;20053;-67
2024/01/29 00:41:50;;;;;;;6.93;3.47;;;11.60;90.10;;;;;;5033328;28;20049;-67
2024/01/29 00:44:17;;;;;;;6.38;3.75;;;;;;;;;;5031812;28;20045;-66
2024/01/29 00:46:43;;;;;;;7.43;4.10;;;;;;;;;;5033026;28;20045;-66
2024/01/29 00:49:09;;;;;;;5.35;2.80;;;;;;;;;;5031706;28;20102;-66
2024/01/29 00:51:36;;;;;;;7.13;4.07;;;;;;;;;;5033092;28;20057;-66
2024/01/29 00:54:02;;;;;;;6.10;3.28;;;;;;;;;;5031926;28;20404;-66
2024/01/29 00:56:28;;;;;;;6.03;3.90;;;;;;;;;;5015174;28;20096;-66
2024/01/29 00:58:54;;;;;;;7.30;3.90;;;;;;;;;;5031774;28;20045;-66
2024/01/29 01:01:20;;;;;;;5.63;3.60;;;11.40;89.60;;;;;;5014220;28;20052;-67
2024/01/29 01:03:46;;;;;;;6.05;3.33;;;;;;;;;;5048034;28;20057;-66
2024/01/29 01:06:12;;;;;;;6.18;3.05;;;;;;;;;;5015039;28;20038;-67
2024/01/29 01:08:38;;;;;;;6.10;3.20;;;;;;;;;;5031233;28;20084;-67
2024/01/29 01:11:04;;;;;;;6.45;2.80;;;;;;;;;;5015064;28;20391;-66
2024/01/29 01:13:30;;;;;;;6.93;3.88;;;;;;;;;;5031349;28;20041;-66
2024/01/29 01:15:56;;;;;;;6.45;3.60;;;;;;;;;;5032718;28;20092;-66
2024/01/29 01:18:22;;;;;;;6.07;3.75;;;;;;;;;;5047271;28;20399;-66
2024/01/29 01:20:48;;;;;;;5.70;3.85;;;;;;;;;;5031385;28;20426;-66
2024/01/29 01:23:15;;;;;;;6.68;2.90;;;;;;;;;;5032410;28;20089;-67
2024/01/29 01:25:41;;;;;;;6.60;3.92;;;;;;;;;;5031111;28;20045;-66
2024/01/29 01:28:08;;;;;;;6.38;3.60;;;11.50;89.90;;;;;;5032654;28;20041;-66
2024/01/29 01:30:34;;;;;;;6.72;3.00;;;;;;;;;;5032261;28;20570;-66
2024/01/29 01:33:00;;;;;;;6.40;3.10;;;11.40;87.80;;;;;;5031471;28;20099;-66
2024/01/29 01:35:26;;;;;;;6.28;3.05;;;;;;;;;;5031456;28;20424;-66
2024/01/29 01:37:52;;;;;;;6.60;3.97;;;11.40;89.90;;;;;;5032699;28;20045;-67
2024/01/29 01:40:18;;;;;;;6.55;3.83;;;11.50;90.00;;;;;;5030891;28;20056;-66
2024/01/29 01:42:44;;;;;;;6.65;3.03;;;;;;;;;;5032232;28;20141;-66
2024/01/29 01:45:11;;;;;;;5.88;3.70;;;11.30;89.80;;;;;;5031019;28;20044;-66
2024/01/29 01:47:37;;;;;;;7.30;3.40;;;;;;;;;;5031034;28;20092;-66
2024/01/29 01:50:04;;;;;;;6.20;3.70;;;;;;;;;;5031984;28;20194;-66
2024/01/29 01:52:30;;;;;;;6.13;3.05;;;11.40;90.10;;;;;;5030386;28;20077;-66
2024/01/29 01:54:56;;;;;;;6.50;3.72;;;;;;;;;;5030596;28;20135;-66
2024/01/29 01:57:21;;;;;;;5.90;3.10;;;11.40;88.40;;;;;;5030568;28;20048;-66
2024/01/29 01:59:47;;;;;;;6.20;3.05;;;;;;;;;;5014119;28;20054;-66
2024/01/29 02:02:13;;;;;;;5.90;3.60;;;;;;;;;;5014067;28;20057;-67
2024/01/29 02:04:39;;;;;;;6.00;3.60;;;;;;;;;;5014124;28;20151;-68
2024/01/29 02:07:05;;;;;;;5.75;3.28;;;;;;;;;;5030438;28;20140;-67
2024/01/29 02:09:31;;;;;;;5.55;3.60;;;;;;;;;;5030548;28;20402;-67
2024/01/29 02:11:58;;;;;;;6.90;3.22;;;;;;;;;;5030379;28;20053;-68
2024/01/29 02:14:24;;;;;;;6.50;4.18;;;;;;;;;;5030546;28;20205;-67
2024/01/29 02:16:50;;;;;;;7.03;4.00;;;;;;;;;;5030812;28;20056;-66
2024/01/29 02:19:16;;;;;;;5.88;2.90;;;;;;;;;;5013969;28;20068;-67
2024/01/29 02:21:42;;;;;;;6.63;3.33;;;;;;;;;;5013911;28;20050;-67
2024/01/29 02:24:08;;;;;;;5.95;3.60;;;;;;;;;;5014294;28;20380;-66
2024/01/29 02:26:34;;;;;;;6.57;3.90;;;11.30;90.00;;;;;;5030131;28;20041;-67
2024/01/29 02:29:00;;;;;;;6.10;3.80;;;;;;;;;;5030095;28;20473;-67
2024/01/29 02:31:27;;;;;;;6.05;3.78;;;;;;;;;;5030535;28;20058;-66
2024/01/29 02:33:53;;;;;;;7.88;3.15;;;;;;;;;;5031709;28;20049;-67
2024/01/29 02:36:19;;;;;;;6.28;3.28;;;;;;;;;;5013735;28;20088;-66
2024/01/29 02:38:45;;;;;;;5.60;2.78;;;;;;;;;;5030365;28;20053;-67
2024/01/29 02:41:11;;;;;;;5.78;3.35;;;;;;;;;;5031517;28;20041;-67
2024/01/29 02:43:37;;;;;;;5.97;3.00;;;;;;;;;;5029784;28;20053;-67
2024/01/29 02:46:03;;;;;;;6.60;3.65;;;11.20;89.90;;;;;;5014728;28;20045;-66
2024/01/29 02:48:28;;;;;;;6.47;3.60;;;11.40;90.00;;;;;;5017472;28;20094;-66
2024/01/29 02:50:54;;;;;;;5.60;3.50;;;;;;;;;;5067215;28;20048;-66
2024/01/29 02:53:20;;;;;;;8.15;3.50;;;;;;;;;;5035456;28;20681;-66
2024/01/29 02:55:46;;;;;;;6.32;3.50;;;11.40;90.00;;;;;;5035425;28;20411;-66
2024/01/29 02:58:12;;;;;;;6.68;3.47;;;;;;;;;;5035415;28;20045;-66
2024/01/29 03:00:38;;;;;;;6.55;3.13;;;;;;;;;;5035104;28;20057;-67
2024/01/29 03:03:04;;;;;;;8.68;3.97;;;;;;;;;;5033581;28;20052;-67
2024/01/29 03:05:30;;;;;;;7.82;2.97;;;;;;;;;;5033591;28;20041;-67
2024/01/29 03:07:56;;;;;;;6.32;3.63;;;;;;;;;;5035147;28;20080;-67
2024/01/29 03:10:22;;;;;;;6.63;2.70;;;;;;;;;;5033461;28;20043;-66
2024/01/29 03:12:48;;;;;;;6.47;3.25;;;;;;;;;;5033655;28;20434;-67
2024/01/29 03:15:15;;;;;;;6.63;3.25;;;;;;;;;;5034769;28;20081;-65
2024/01/29 03:17:41;;;;;;;6.43;2.88;;;;;;;;;;5033524;28;20057;-66
2024/01/29 03:20:07;;;;;;;5.63;2.88;;;;;;;;;;5033744;28;20049;-66
2024/01/29 03:22:33;;;;;;;6.68;4.10;;;;;;;;;;5033253;28;20049;-66
2024/01/29 03:24:59;;;;;;;6.80;3.80;;;;;;;;;;5033277;28;20059;-67
2024/01/29 03:27:25;;;;;;;5.68;3.53;;;;;;;;;;5033230;28;20053;-66
2024/01/29 03:29:51;;;;;;;5.28;2.97;;;;;;;;;;5033035;28;20057;-66
2024/01/29 03:32:17;;;;;;;6.15;3.88;;;11.20;90.00;;;;;;5033443;28;20067;-67
2024/01/29 03:34:42;;;;;;;6.07;3.50;;;11.20;89.10;;;;;;5032877;28;20037;-66
2024/01/29 03:37:09;;;;;;;5.85;2.90;;;;;;;;;;5034643;28;20483;-66
2024/01/29 03:39:35;;;;;;;5.85;3.25;;;;;;;;;;5034486;28;20049;-66
2024/01/29 03:42:00;;;;;;;6.15;3.70;;;11.30;90.00;;;;;;5034189;28;20115;-66
2024/01/29 03:44:26;;;;;;;5.40;2.78;;;;;;;;;;5034436;28;20049;-66
2024/01/29 03:46:52;;;;;;;6.43;3.00;;;11.30;88.30;;;;;;5034515;28;20046;-67
2024/01/29 03:49:18;;;;;;;6.28;3.05;;;;;;;;;;5034374;28;20391;-66
2024/01/29 03:51:44;;;;;;;6.20;3.40;;;11.20;90.00;;;;;;5032889;28;20057;-66
2024/01/29 03:54:10;;;;;;;6.80;2.97;;;;;;;;;;5016273;28;20056;-66
2024/01/29 03:56:36;;;;;;;6.57;3.15;;;;;;;;;;5033023;28;20057;-67
2024/01/29 03:59:03;;;;;;;5.82;3.45;;;;;;;;;;5031621;28;20033;-66
2024/01/29 04:01:29;;;;;;;6.05;3.78;;;;;;;;;;5032529;28;20053;-66
2024/01/29 04:03:55;;;;;;;6.05;3.33;;;11.60;90.50;;;;;;5032555;28;20087;-66
2024/01/29 04:06:21;;;;;;;6.47;3.10;;;;;;;;;;5000037;28;20041;-66
2024/01/29 04:08:47;;;;;;;6.90;3.20;;;;;;;;;;5032313;28;20053;-67
2024/01/29 04:11:14;;;;;;;5.80;3.00;;;;;;;;;;5033957;28;20092;-66
2024/01/29 04:13:40;;;;;;;7.00;3.92;;;;;;;;;;5033883;28;20406;-66
2024/01/29 04:16:10;;;;;;;5.35;3.60;;;11.10;87.70;;;;;;5032378;28;20045;-66
2024/01/29 04:18:37;;;;;;;6.82;3.03;;;;;;;;;;4999866;28;20120;-66
2024/01/29 04:21:05;;;;;;;7.32;3.47;;;11.00;87.40;;;;;;5032485;28;20329;-67
2024/01/29 04:23:31;;;;;;;6.82;3.17;;;;;;;;;;5032207;28;20053;-66
2024/01/29 04:25:57;;;;;;;5.43;3.00;;;;;;;;;;5031918;28;20053;-66
2024/01/29 04:28:23;;;;;;;8.15;3.28;;;;;;;;;;5031923;28;20053;-67
2024/01/29 04:30:49;;;;;;;6.07;3.13;;;;;;;;;;5032384;28;20057;-67
2024/01/29 04:33:15;;;;;;;6.43;3.17;;;;;;;;;;5032042;28;20053;-66
2024/01/29 04:35:41;;;;;;;6.38;3.10;;;;;;;;;;5032220;28;20075;-66
2024/01/29 04:38:07;;;;;;;6.80;3.30;;;;;;;;;;5032181;28;20049;-66
2024/01/29 04:40:38;;;;;;;6.88;3.10;;;;;;;;;;5031850;28;20065;-67
2024/01/29 04:43:04;;;;;;;6.80;3.78;;;;;;;;;;5031420;28;20057;-66
2024/01/29 04:45:30;;;;;;;5.75;3.10;;;;;;;;;;5015443;28;20049;-67
2024/01/29 04:47:57;;;;;;;4.63;2.65;;;;;;;;;;5031863;28;20047;-66
2024/01/29 04:50:23;;;;;;;6.75;3.22;;;;;;;;;;5033177;28;20483;-66
2024/01/29 04:52:49;;;;;;;7.63;3.20;;;;;;;;;;5032199;28;20148;-66
2024/01/29 04:55:15;;;;;;;5.07;2.97;;;;;;;;;;5015620;28;20041;-67
2024/01/29 04:57:41;;;;;;;7.32;3.80;;;;;;;;;;5031999;28;20053;-67
2024/01/29 05:00:08;;;;;;;7.25;2.95;;;;;;;;;;5033135;28;20091;-66
2024/01/29 05:02:35;;;;;;;5.53;2.72;;;;;;;;;;5031430;28;20132;-66
2024/01/29 05:05:01;;;;;;;5.78;2.95;;;;;;;;;;5031543;28;20053;-66
2024/01/29 05:07:27;;;;;;;6.32;3.88;;;;;;;;;;5031365;28;20099;-67
2024/01/29 05:09:54;;;;;;;7.55;3.75;;;;;;;;;;5031438;28;20523;-66
2024/01/29 05:12:20;;;;;;;6.28;3.03;;;;;;;;;;5031550;28;20115;-65
2024/01/29 05:14:46;;;;;;;5.97;3.10;;;;;;;;;;5031162;28;20050;-66
2024/01/29 05:17:12;;;;;;;5.95;3.17;;;;;;;;;;5032630;28;20045;-66
2024/01/29 05:19:44;;;;;;;6.13;2.88;;;;;;;;;;5031240;28;20085;-66
2024/01/29 05:22:09;;;;;;;8.25;3.20;;;11.30;89.50;;;;;;5032357;28;20076;-65
2024/01/29 05:24:36;;;;;;;5.57;2.92;;;;;;;;;;5032244;28;20037;-65
2024/01/29 05:27:02;;;;;;;6.65;4.10;;;11.20;88.80;;;;;;5032621;28;20049;-65
2024/01/29 05:29:28;;;;;;;8.10;4.15;;;11.10;90.10;;;;;;5031035;28;20773;-66
2024/01/29 05:31:54;;;;;;;6.20;3.15;;;;;;;;;;5032512;28;20163;-66
2024/01/29 05:34:20;;;;;;;7.75;3.30;;;;;;;;;;5030397;28;20403;-65
2024/01/29 05:36:46;;;;;;;6.53;2.85;;;;;;;;;;5032378;28;20458;-66
2024/01/29 05:39:12;;;;;;;6.45;3.05;;;11.50;90.50;;;;;;5032436;28;20388;-66
2024/01/29 05:41:38;;;;;;;5.47;3.20;;;;;;;;;;5047380;28;20075;-66
2024/01/29 05:44:04;;;;;;;7.68;3.70;;;;;;;;;;5014268;28;20156;-67
2024/01/29 05:46:30;;;;;;;7.25;3.35;;;;;;;;;;5030665;28;20156;-65
2024/01/29 05:48:56;;;;;;;7.07;3.50;;;;;;;;;;5030619;28;20057;-65
2024/01/29 05:51:22;;;;;;;7.43;3.42;;;11.10;90.40;;;;;;5013898;28;20057;-66
2024/01/29 05:53:48;;;;;;;6.78;3.03;;;;;;;;;;5032285;28;20037;-65
2024/01/29 05:56:14;;;;;;;7.55;3.53;;;;;;;;;;5031874;28;20056;-65
2024/01/29 05:58:44;;;;;;;7.43;3.63;;;;;;;;;;5030537;28;20057;-66
2024/01/29 06:01:11;;;;;;;7.25;3.78;;;;;;;;;;5030436;28;20061;-67
2024/01/29 06:03:36;;;;;;;5.95;3.10;;;11.10;90.30;;;;;;5030518;28;20057;-66
2024/01/29 06:06:02;;;;;;;6.32;3.65;;;11.40;90.50;;;;;;5031828;28;20119;-65
2024/01/29 06:08:28;;;;;;;5.50;3.10;;;11.30;89.60;;;;;;5031793;28;20065;-65
2024/01/29 06:10:55;;;;;;;6.43;3.28;;;11.00;88.20;;;;;;5030381;28;20049;-65
2024/01/29 06:13:23;;;;;;;6.30;4.03;;;;;;;;;;5031845;28;20045;-66
2024/01/29 06:15:49;;;;;;;5.90;3.42;;;11.20;87.80;;;;;;5014317;28;20491;-65
2024/01/29 06:18:15;;;;;;;5.70;3.05;;;;;;;;;;5030314;28;20053;-66
2024/01/29 06:20:41;;;;;;;5.50;2.80;;;11.20;90.40;;;;;;5031034;28;20129;-65
2024/01/29 06:23:09;;;;;;;7.43;2.90;;;;;;;;;;5035983;28;20776;-66
2024/01/29 06:25:35;;;;;;;7.93;3.35;;;;;;;;;;5035758;28;20483;-66
2024/01/29 06:28:01;;;;;;;7.40;4.10;;;;;;;;;;5051309;28;20136;-66
2024/01/29 06:30:27;;;;;;;5.63;3.60;;;11.10;90.10;;;;;;5035423;28;20065;-66
2024/01/29 06:32:53;;;;;;;6.05;3.10;;;;;;;;;;5035563;28;20049;-66
2024/01/29 06:35:19;;;;;;;5.45;3.03;;;;;;;;;;5035852;28;20052;-65
2024/01/29 06:37:45;;;;;;;6.80;3.17;;;;;;;;;;5034160;28;20089;-67
2024/01/29 06:40:11;;;;;;;6.53;3.53;;;;;;;;;;5034135;28;20053;-66
2024/01/29 06:42:37;;;;;;;7.38;3.60;;;;;;;;;;5035050;28;20100;-64
2024/01/29 06:45:04;;;;;;;7.82;3.30;;;;;;;;;;5035593;28;20415;-65
2024/01/29 06:47:30;;;;;;;5.72;3.05;;;;;;;;;;5035577;28;20050;-66
2024/01/29 06:49:58;;;;;;;7.20;4.47;;;;;;;;;;5033896;28;20107;-66
2024/01/29 06:52:25;;;;;;;7.43;4.22;;;11.10;90.20;;;;;;5034121;28;20469;-66
2024/01/29 06:54:52;;;;;;;6.82;3.47;;;;;;;;;;5001526;28;20464;-65
2024/01/29 06:57:18;;;;;;;7.90;3.58;;;11.20;90.50;;;;;;5033989;28;20057;-65
2024/01/29 06:59:44;;;;;;;7.40;4.38;;;;;;;;;;5033634;28;20498;-66
2024/01/29 07:02:10;;;;;;;6.20;3.53;;;;;;;;;;5034941;28;20085;-66
2024/01/29 07:04:37;;;;;;;6.15;3.55;;;;;;;;;;5035296;28;20385;-65
2024/01/29 07:07:03;;;;;;;7.38;3.53;;;;;;;;;;5033577;28;20103;-66
2024/01/29 07:09:31;;;;;;;6.32;4.22;;;;;;;;;;5033768;28;20407;-64
2024/01/29 07:11:57;;;;;;;5.80;3.35;;;;;;;;;;5033686;28;20057;-66
2024/01/29 07:14:23;;;;;;;7.13;3.40;;;;;;;;;;5034646;28;20045;-65
2024/01/29 07:16:50;;;;;;;7.00;3.45;;;;;;;;;;5016371;28;20053;-66
2024/01/29 07:19:25;;;;;;;6.88;3.30;;;;;;;;;;5017357;28;20037;-66
2024/01/29 07:21:51;;;;;;;8.00;3.53;;;;;;;;;;5034904;28;20107;-66
2024/01/29 07:24:17;;;;;;;9.30;3.40;;;;;;;;;;5034565;28;20138;-67
2024/01/29 07:26:43;;;;;;;6.53;3.47;;;10.80;89.80;;;;;;5034460;28;20056;-66
2024/01/29 07:29:09;;;;;;;7.65;4.40;;;11.20;90.20;;;;;;5034546;28;20049;-66
2024/01/29 07:31:35;;;;;;;6.30;4.05;;;;;;;;;;5033078;28;20092;-66
2024/01/29 07:34:01;;;;;;;6.05;3.17;;;11.10;88.40;;;;;;5032339;28;20045;-67
2024/01/29 07:36:27;;;;;;;6.68;3.53;;;;;;;;;;4984105;28;20123;-66
2024/01/29 07:38:53;;;;;;;6.43;3.10;;;;;;;;;;5034352;28;20064;-67
2024/01/29 07:41:19;;;;;;;5.55;3.08;;;;;;;;;;5034348;28;20406;-67
2024/01/29 07:43:46;;;;;;;7.00;4.10;;;;;;;;;;5033103;28;20533;-66
2024/01/29 07:46:12;;;;;;;5.90;3.97;;;;;;;;;;5034520;28;20057;-66
2024/01/29 07:48:38;;;;;;;7.88;3.35;;;;;;;;;;5033105;28;20562;-66
2024/01/29 07:51:04;;;;;;;7.43;4.10;;;11.10;89.40;;;;;;5034226;28;20450;-67
2024/01/29 07:53:30;;;;;;;7.90;3.85;;;;;;;;;;5032847;28;20041;-67
2024/01/29 07:55:56;;;;;;;6.57;3.97;;;;;;;;;;5033018;28;20050;-67
2024/01/29 07:58:22;;;;;;;8.10;3.40;;;11.10;90.60;;;;;;5032691;28;20049;-67
2024/01/29 08:00:49;;;;;;;6.32;3.63;;;;;;;;;;5033000;28;20059;-66
2024/01/29 08:03:14;;;;;;;6.93;3.75;;;11.10;90.50;;;;;;5032523;28;20057;-67
2024/01/29 08:05:40;;;;;;;7.35;3.65;;;;;;;;;;5032874;28;20107;-66
2024/01/29 08:08:07;;;;;;;7.13;4.32;;;;;;;;;;5033893;28;20080;-67
2024/01/29 08:10:34;;;;;;;7.88;4.25;;;;;;;;;;5033992;28;20041;-66
2024/01/29 08:13:00;;;;;;;6.50;3.40;;;;;;;;;;5016002;28;20049;-67
2024/01/29 08:15:29;;;;;;;6.88;3.50;;;;;;;;;;5033910;28;20045;-66
2024/01/29 08:17:55;;;;;;;6.93;4.60;;;;;;;;;;5032668;28;20576;-67
2024/01/29 08:20:24;;;;;;;7.53;4.50;;;;;;;;;;5033583;28;20056;-67
2024/01/29 08:22:50;;;;;;;7.95;4.28;;;11.20;89.60;;;;;;5032100;28;20041;-67
2024/01/29 08:25:16;;;;;;;5.70;3.10;;;;;;;;;;5033833;28;20079;-66
2024/01/29 08:27:42;;;;;;;8.27;4.68;;;;;;;;;;5033642;28;20045;-66
2024/01/29 08:30:09;;;;;;;6.47;4.20;;;;;;;;;;5033254;28;20119;-66
2024/01/29 08:32:35;;;;;;;6.70;3.50;;;11.30;90.60;;;;;;5033611;28;20096;-66
2024/01/29 08:35:01;;;;;;;5.95;4.13;;;;;;;;;;5032013;28;20483;-67
2024/01/29 08:37:27;;;;;;;6.38;4.13;;;11.40;90.30;;;;;;5015350;28;20045;-67
2024/01/29 08:39:53;;;;;;;6.55;4.35;;;;;;;;;;5420700;22;20397;-66
2024/01/29 08:42:19;;;;;;;6.47;3.33;;;;;;;;;;5051801;28;20049;-71
2024/01/29 08:44:46;;;;;;;6.80;3.63;;;;;;;;;;5052633;28;20057;-69
2024/01/29 08:47:11;;;;;;;6.40;3.80;;;11.20;90.50;;;;;;5052961;28;20057;-67
2024/01/29 08:49:37;;;;;;;6.88;4.60;;;11.50;90.30;;;;;;5053062;28;20041;-69
2024/01/29 08:52:03;;;;;;;6.53;3.38;;;;;;;;;;5053090;28;20043;-70
2024/01/29 08:54:29;;;;;;;5.95;3.60;;;;;;;;;;5051813;28;20079;-68
2024/01/29 08:56:55;;;;;;;6.90;3.58;;;;;;;;;;5054224;28;20118;-70
2024/01/29 08:59:21;;;;;;;7.03;3.50;;;;;;;;;;5037495;28;20045;-69
2024/01/29 09:01:47;;;;;;;6.63;3.28;;;11.70;89.50;;;;;;5032889;28;20409;-70
2024/01/29 09:04:13;;;;;;;6.45;4.00;;;;;;;;;;5031899;28;20046;-69
2024/01/29 09:06:39;;;;;;;7.57;4.60;;;;;;;;;;5033135;28;20424;-67
2024/01/29 09:09:05;;;;;;;7.10;4.50;;;;;;;;;;5031717;28;20109;-69
2024/01/29 09:11:31;;;;;;;7.63;4.80;;;;;;;;;;5031713;28;20120;-68
2024/01/29 09:13:58;;;;;;;7.60;4.05;;;11.80;90.10;;;;;;5034218;28;20061;-70
2024/01/29 09:16:24;;;;;;;6.35;4.20;;;;;;;;;;5052603;28;20128;-68
2024/01/29 09:18:50;;;;;;;7.65;4.50;;;11.90;86.60;;;;;;5052484;28;20124;-67
2024/01/29 09:21:16;;;;;;;7.35;4.57;;;;;;;;;;5051154;28;20131;-68
2024/01/29 09:23:42;;;;;;;7.45;4.93;;;;;;;;;;5051392;28;20421;-69
2024/01/29 09:26:08;;;;;;;7.10;4.45;;;;;;;;;;5052375;28;20063;-70
2024/01/29 09:28:34;;;;;;;8.90;4.55;;;;;;;;;;5052316;28;20040;-69
2024/01/29 09:31:01;;;;;;;6.65;4.50;;;;;;;;;;5052856;28;20135;-68
2024/01/29 09:33:27;;;;;;;7.78;4.82;;;;;;;;;;5052533;28;20417;-68
2024/01/29 09:35:53;;;;;;;8.05;4.70;;;12.00;89.80;;;;;;5052150;28;20425;-69
2024/01/29 09:38:19;;;;;;;7.95;5.13;;;11.90;90.10;;;;;;5052411;28;20041;-70
2024/01/29 09:40:45;;;;;;;6.50;4.47;;;;;;;;;;5050615;28;20779;-68
2024/01/29 09:43:12;;;;;;;6.38;4.50;;;;;;;;;;5051044;28;20405;-68
2024/01/29 09:45:38;;;;;;;8.38;5.40;;;12.10;90.20;;;;;;5052329;28;20045;-70
2024/01/29 09:48:05;;;;;;;7.05;4.88;;;12.10;90.20;;;;;;5034851;28;20040;-69
2024/01/29 09:50:30;;;;;;;7.85;4.45;;;12.00;90.20;;;;;;5051979;28;20045;-70
2024/01/29 09:52:56;;;;;;;6.43;4.50;;;;;;;;;;5034362;28;20053;-68
2024/01/29 09:55:23;;;;;;;6.50;4.88;;;;;;;;;;5050066;28;20102;-68
2024/01/29 09:57:49;;;;;;;8.18;4.90;;;;;;;;;;5034579;28;20049;-69
2024/01/29 10:00:16;;;;;;;7.32;4.72;;;;;;;;;;5052203;28;20072;-68
2024/01/29 10:02:42;;;;;;;6.75;4.65;;;;;;;;;;5034602;28;20418;-69
2024/01/29 10:05:11;;;;;;;8.32;4.88;;;;;;;;;;5051581;28;20048;-68
2024/01/29 10:07:37;;;;;;;7.72;4.90;;;;;;;;;;5050848;28;20056;-68
2024/01/29 10:10:03;;;;;;;7.43;4.88;;;;;;;;;;5050704;28;20123;-67
2024/01/29 10:12:29;;;;;;;7.75;4.70;;;;;;;;;;5051772;28;20501;-70
2024/01/29 10:14:55;;;;;;;7.70;4.90;;;;;;;;;;5051712;28;20084;-67
2024/01/29 10:17:23;;;;;;;7.65;5.13;;;;;;;;;;5050432;28;20116;-69
2024/01/29 10:19:49;;;;;;;7.95;5.18;;;;;;;;;;5051898;28;20092;-69
2024/01/29 10:22:16;;;;;;;7.10;5.20;;;;;;;;;;5052454;28;20478;-69
2024/01/29 10:24:42;;;;;;;8.75;5.20;;;;;;;;;;5050349;28;20124;-67
2024/01/29 10:27:08;;;;;;;8.32;5.25;;;12.20;87.70;;;;;;5050347;28;20056;-69
2024/01/29 10:29:47;;;;;;;8.35;5.15;;;;;;;;;;5051863;28;20037;-69
2024/01/29 10:32:14;;;;;;;7.35;5.15;;;;;;;;;;5051604;28;20053;-69
2024/01/29 10:34:40;;;;;;;7.68;5.18;;;12.30;90.40;;;;;;5051766;28;20060;-68
2024/01/29 10:37:06;;;;;;;8.80;5.75;;;12.40;90.40;;;;;;5051422;28;20045;-66
2024/01/29 10:39:36;;;;;;;7.28;4.93;;;;;;;;;;5056351;28;20048;-67
2024/01/29 10:42:02;;;;;;;7.05;5.40;;;;;;;;;;5071597;28;20037;-70
2024/01/29 10:44:31;;;;;;;7.68;5.38;;;12.50;89.60;;;;;;5071350;28;20047;-67
2024/01/29 10:46:57;;;;;;;7.93;5.00;;;12.50;90.30;;;;;;5070404;28;20041;-66
2024/01/29 10:49:23;;;;;;;8.27;5.88;;;;;;;;;;5070351;28;20122;-68
2024/01/29 10:51:51;;;;;;;8.20;5.65;;;12.40;90.50;;;;;;5071326;28;20147;-69
2024/01/29 10:54:17;;;;;;;8.70;5.85;;;12.40;90.50;;;;;;5071592;28;20145;-69
2024/01/29 10:56:43;;;;;;;9.50;5.97;;;;;;;;;;5052599;28;20091;-69
2024/01/29 10:59:12;;;;;;;6.95;5.32;;;12.50;90.60;;;;;;5070085;28;20051;-69
2024/01/29 11:01:38;;;;;;;8.00;5.88;;;;;;;;;;5053850;28;20057;-67
2024/01/29 11:04:04;;;;;;;7.43;5.32;;;12.40;90.00;;;;;;5071539;28;20048;-69
2024/01/29 11:06:38;;;;;;;7.63;5.78;;;12.70;88.00;;;;;;5070249;28;20050;-66
2024/01/29 11:09:08;;;;;;;7.82;5.55;;;;;;;;;;5057163;28;20055;-70
2024/01/29 11:11:35;;;;;;;7.78;5.75;;;;;;;;;;5073909;28;20052;-67
2024/01/29 11:14:01;;;;;;;9.05;5.65;;;12.80;89.80;;;;;;5072806;28;20057;-70
2024/01/29 11:16:27;;;;;;;8.68;5.72;;;13.00;89.60;;;;;;5057223;28;20424;-68
2024/01/29 11:18:53;;;;;;;7.88;5.90;;;;;;;;;;5074867;28;20044;-67
2024/01/29 11:21:25;;;;;;;8.23;5.93;;;;;;;;;;5074859;28;20059;-67
2024/01/29 11:23:56;;;;;;;8.85;5.85;;;13.00;89.90;;;;;;5074630;28;20048;-67
2024/01/29 11:26:23;;;;;;;9.40;6.10;;;;;;;;;;5057263;28;20485;-68
2024/01/29 11:28:56;;;;;;;8.55;5.78;;;;;;;;;;5074814;28;20079;-69
2024/01/29 11:31:22;;;;;;;;;;;12.90;90.20;;;;;;5074211;28;20044;-66
2024/01/29 11:33:48;;;;;;;8.95;5.60;;;;;;;;;;5073216;28;19974;-67
2024/01/29 11:36:14;;;;;;;8.75;6.45;;;;;;;;;;5034504;28;20046;-70
2024/01/29 11:38:39;;;;;;;8.55;5.88;;;13.00;90.60;;;;;;5034836;28;20034;-69
2024/01/29 11:41:06;;;;;;;8.30;5.72;;;;;;;;;;5034132;28;20053;-70
2024/01/29 11:43:32;;;;;;;9.45;5.80;;;;;;;;;;5034640;28;20085;-70
2024/01/29 11:45:58;;;;;;;9.70;6.00;;;;;;;;;;5034552;28;20049;-67
2024/01/29 11:48:24;;;;;;;8.82;6.10;;;;;;;;;;5049187;28;20081;-69
2024/01/29 11:50:54;;;;;;;10.07;6.68;;;13.30;88.70;;;;;;5054052;28;20041;-69
2024/01/29 11:53:26;;;;;;;8.60;5.78;;;13.20;89.90;;;;;;5052865;28;20529;-68
2024/01/29 11:55:53;;;;;;;8.40;5.68;;;;;;;;;;5035108;28;20136;-69
2024/01/29 11:58:20;;;;;;;7.93;5.78;;;13.30;91.10;;;;;;5052685;28;20052;-68
2024/01/29 12:00:47;;;;;;;7.97;6.05;;;;;;;;;;5069390;28;20498;-67
2024/01/29 12:03:14;;;;;;;8.93;6.22;;;;;;;;;;5053913;28;20049;-68
2024/01/29 12:05:40;;;;;;;7.90;5.35;;;;;;;;;;5068436;28;20060;-70
2024/01/29 12:08:16;;;;;;;8.55;6.15;;;13.30;90.00;;;;;;5073900;28;20496;-67
2024/01/29 12:10:43;;;;;;;8.13;5.93;;;;;;;;;;5074012;28;20064;-68
2024/01/29 12:13:15;;;;;;;7.53;5.40;;;13.20;88.90;;;;;;5073730;28;20052;-67
2024/01/29 12:15:42;;;;;;;8.38;6.22;;;;;;;;;;5072387;28;20138;-69
2024/01/29 12:18:12;;;;;;;10.38;5.72;;;13.30;89.60;;;;;;5073100;28;20041;-67
2024/01/29 12:20:38;;;;;;;8.18;6.05;;;;;;;;;;5072363;28;20041;-68
2024/01/29 12:23:04;;;;;;;9.60;6.07;;;13.20;90.70;;;;;;5072688;28;20448;-67
2024/01/29 12:25:30;;;;;;;10.85;6.00;;;13.10;90.70;;;;;;5072262;28;20049;-69
2024/01/29 12:28:03;;;;;;;7.80;5.95;;;13.10;89.20;;;;;;5069784;28;20048;-68
2024/01/29 12:30:30;;;;;;;;;;;12.80;90.30;;;;;;5052852;28;20067;-69
2024/01/29 12:32:56;;;;;;;9.32;5.82;;;;;;;;;;5053324;28;19921;-68
2024/01/29 12:35:26;;;;;;;8.73;5.93;;;13.20;89.30;;;;;;5040570;28;20098;-68
2024/01/29 12:37:52;;;;;;;7.28;5.15;;;;;;;;;;5035195;28;20060;-67
2024/01/29 12:40:18;;;;;;;10.02;6.35;;;;;;;;;;5053014;28;20059;-68
2024/01/29 12:42:44;;;;;;;8.20;5.63;;;;;;;;;;5051996;28;20432;-69
2024/01/29 12:45:14;;;;;;;9.45;6.10;;;13.00;90.90;;;;;;5053395;28;20106;-69
2024/01/29 12:47:40;;;;;;;7.82;5.53;;;;;;;;;;5035790;28;20061;-68
2024/01/29 12:50:06;;;;;;;8.15;5.80;;;;;;;;;;5051729;28;20045;-69
2024/01/29 12:52:32;;;;;;;9.27;6.13;;;13.00;91.40;;;;;;5053111;28;20052;-68
2024/01/29 12:54:58;;;;;;;8.52;5.85;;;;;;;;;;5052217;28;20116;-66
2024/01/29 12:57:25;;;;;;;8.82;5.82;;;;;;;;;;5053238;28;20559;-69
2024/01/29 12:59:51;;;;;;;8.32;6.00;;;;;;;;;;5053145;28;20489;-68
2024/01/29 13:02:16;;;;;;;7.43;5.35;;;12.70;91.30;;;;;;5051349;28;20049;-68
2024/01/29 13:04:43;;;;;;;9.32;6.20;;;;;;;;;;5053109;28;20052;-67
2024/01/29 13:07:09;;;;;;;9.13;6.05;;;;;;;;;;5052678;28;20504;-67
2024/01/29 13:09:35;;;;;;;8.18;6.00;;;;;;;;;;5052814;28;20072;-67
2024/01/29 13:12:02;;;;;;;8.13;5.53;;;;;;;;;;5053448;28;20509;-69
2024/01/29 13:14:28;;;;;;;9.40;6.20;;;;;;;;;;5051191;28;20502;-70
2024/01/29 13:16:55;;;;;;;7.95;5.80;;;12.80;91.50;;;;;;5051220;28;20128;-67
2024/01/29 13:19:21;;;;;;;10.07;6.18;;;;;;;;;;5052624;28;20779;-68
2024/01/29 13:21:47;;;;;;;10.57;6.07;;;12.80;91.50;;;;;;5051258;28;20080;-68
2024/01/29 13:24:12;;;;;;;9.43;6.22;;;12.80;91.60;;;;;;5052716;28;20774;-67
2024/01/29 13:26:40;;;;;;;8.35;6.50;;;12.70;91.00;;;;;;5052524;28;20111;-68
2024/01/29 13:29:07;;;;;;;8.52;6.55;;;;;;;;;;5055450;28;20469;-69
2024/01/29 13:31:32;;;;;;;9.45;6.53;;;12.70;91.60;;;;;;5072126;28;20782;-69
2024/01/29 13:34:00;;;;;;;8.73;6.25;;;;;;;;;;5052752;28;20063;-67
2024/01/29 13:36:27;;;;;;;10.07;6.88;;;;;;;;;;5052479;28;20367;-67
2024/01/29 13:38:53;;;;;;;9.75;6.45;;;;;;;;;;5051899;28;20049;-68
2024/01/29 13:41:19;;;;;;;8.35;6.20;;;;;;;;;;5051875;28;20064;-69
2024/01/29 13:43:45;;;;;;;8.90;6.38;;;12.60;90.10;;;;;;5052348;28;20442;-66
2024/01/29 13:46:16;;;;;;;9.65;6.60;;;12.70;89.80;;;;;;5052806;28;20041;-69
2024/01/29 13:48:42;;;;;;;10.57;7.03;;;;;;;;;;5052010;28;20064;-69
2024/01/29 13:51:08;;;;;;;8.77;6.07;;;;;;;;;;5052026;28;20484;-68
2024/01/29 13:53:36;;;;;;;9.90;6.65;;;12.70;91.70;;;;;;5052013;28;20417;-68
2024/01/29 13:56:03;;;;;;;10.88;6.75;;;;;;;;;;5034427;28;20061;-68
2024/01/29 13:58:30;;;;;;;10.25;6.90;;;;;;;;;;5050752;28;20107;-67
2024/01/29 14:00:56;;;;;;;11.15;7.68;;;;;;;;;;5052047;28;20056;-68
2024/01/29 14:03:22;;;;;;;9.88;7.03;;;;;;;;;;5056871;28;20056;-69